Time;durP1;ratioP1;P1;durP2;ratioP2;P2;SDS_P1;SDS_P2;PMS_P1;PMS_P2;Temp;Humidity;BMP_temperature;BMP_pressure;BME280_temperature;BME280_humidity;BME280_pressure;Samples;Min_cycle;Max_cycle;Signal;HPM_P1;HPM_P2
2023/07/12 00:00:01;;;;;;;1.60;0.60;;;24.90;77.30;;;;;;4993040;28;20589;-74
2023/07/12 00:02:26;;;;;;;2.60;1.33;;;24.90;78.30;;;;;;4994242;28;20174;-74
2023/07/12 00:04:52;;;;;;;1.60;0.60;;;24.80;78.80;;;;;;4994203;28;20691;-76
2023/07/12 00:07:18;;;;;;;1.63;0.73;;;24.80;79.90;;;;;;4993305;28;20694;-74
2023/07/12 00:09:45;;;;;;;1.93;0.80;;;24.70;80.20;;;;;;4993934;28;20178;-73
2023/07/12 00:12:10;;;;;;;2.33;0.70;;;24.60;80.90;;;;;;4993842;28;20527;-74
2023/07/12 00:14:36;;;;;;;2.23;0.67;;;24.60;81.80;;;;;;4994228;28;20574;-74
2023/07/12 00:17:02;;;;;;;2.90;0.80;;;24.50;83.10;;;;;;4975886;28;20732;-75
2023/07/12 00:19:29;;;;;;;1.73;1.17;;;24.50;83.50;;;;;;4992612;28;20185;-75
2023/07/12 00:21:55;;;;;;;1.60;0.70;;;24.50;84.20;;;;;;4992972;28;20574;-75
2023/07/12 00:24:20;;;;;;;4.20;1.20;;;24.40;85.80;;;;;;4993767;28;20627;-75
2023/07/12 00:26:46;;;;;;;1.70;0.80;;;24.30;85.50;;;;;;4975467;28;20741;-75
2023/07/12 00:29:11;;;;;;;1.57;0.70;;;24.30;86.20;;;;;;4976345;28;20655;-76
2023/07/12 00:31:38;;;;;;;2.03;0.80;;;24.30;87.50;;;;;;4993605;28;20203;-75
2023/07/12 00:34:04;;;;;;;2.80;0.70;;;24.30;88.20;;;;;;4992311;28;20189;-75
2023/07/12 00:36:31;;;;;;;1.90;0.60;;;24.30;89.20;;;;;;4975359;28;20657;-75
2023/07/12 00:38:59;;;;;;;2.70;0.83;;;24.40;89.90;;;;;;4960037;28;20590;-76
2023/07/12 00:42:02;;;;;;;2.87;1.07;;;24.40;90.30;;;;;;4992013;28;20651;-75
2023/07/12 00:44:47;;;;;;;1.80;0.73;;;24.40;90.60;;;;;;4975566;28;20632;-75
2023/07/12 00:47:14;;;;;;;1.87;0.60;;;24.40;90.70;;;;;;4991696;28;20606;-76
2023/07/12 00:49:40;;;;;;;1.90;0.83;;;24.50;90.80;;;;;;4994426;28;20586;-76
2023/07/12 00:52:18;;;;;;;2.27;0.80;;;24.50;90.90;;;;;;4993116;28;20585;-76
2023/07/12 00:54:48;;;;;;;1.90;0.80;;;24.50;91.80;;;;;;4975708;28;20185;-75
2023/07/12 00:57:14;;;;;;;1.77;0.70;;;24.50;91.40;;;;;;4975422;28;20618;-75
2023/07/12 00:59:41;;;;;;;1.90;0.77;;;24.60;91.50;;;;;;4991331;28;20578;-75
2023/07/12 01:02:07;;;;;;;1.80;0.57;;;24.60;91.60;;;;;;4991605;28;20163;-75
2023/07/12 01:04:41;;;;;;;2.73;0.80;;;24.70;91.80;;;;;;4991602;28;20629;-75
2023/07/12 01:07:07;;;;;;;2.17;0.73;;;24.70;92.00;;;;;;4974766;28;20628;-76
2023/07/12 01:09:33;;;;;;;2.10;0.77;;;24.70;91.90;;;;;;4975669;28;20582;-75
2023/07/12 01:12:00;;;;;;;3.40;1.30;;;24.70;92.20;;;;;;4991294;28;20182;-75
2023/07/12 01:14:27;;;;;;;2.47;0.90;;;24.70;92.60;;;;;;4990649;28;20724;-75
2023/07/12 01:17:11;;;;;;;1.83;0.80;;;24.60;93.00;;;;;;5003177;28;20974;-76
2023/07/12 01:19:39;;;;;;;2.00;0.70;;;24.50;93.40;;;;;;4978491;28;20600;-75
2023/07/12 01:22:05;;;;;;;2.93;0.80;;;24.40;93.70;;;;;;4994041;28;20728;-75
2023/07/12 01:24:34;;;;;;;1.70;0.70;;;24.30;94.10;;;;;;5011041;28;20664;-75
2023/07/12 01:27:10;;;;;;;2.43;0.77;;;24.20;94.70;;;;;;5011839;28;21081;-75
2023/07/12 01:29:36;;;;;;;3.93;0.80;;;24.10;95.50;;;;;;4978897;28;20581;-75
2023/07/12 01:32:02;;;;;;;2.90;1.00;;;24.00;96.00;;;;;;5010305;28;20619;-75
2023/07/12 01:34:29;;;;;;;1.87;0.90;;;23.90;96.50;;;;;;5010739;28;20182;-74
2023/07/12 01:36:55;;;;;;;3.13;0.87;;;23.80;97.00;;;;;;4993976;28;20637;-75
2023/07/12 01:39:22;;;;;;;5.70;0.80;;;23.70;97.40;;;;;;5010654;28;20578;-75
2023/07/12 01:41:47;;;;;;;2.17;0.80;;;23.50;97.80;;;;;;5010381;28;20973;-74
2023/07/12 01:44:13;;;;;;;2.37;0.90;;;23.40;98.60;;;;;;5010297;28;20194;-75
2023/07/12 01:46:39;;;;;;;2.60;1.03;;;23.30;99.10;;;;;;4993573;28;20230;-75
2023/07/12 01:49:04;;;;;;;3.07;0.80;;;23.20;99.90;;;;;;5009071;28;20167;-75
2023/07/12 01:51:31;;;;;;;2.87;0.70;;;23.10;99.90;;;;;;5009897;28;20289;-74
2023/07/12 01:53:57;;;;;;;3.40;0.80;;;23.00;99.90;;;;;;4977395;28;20700;-74
2023/07/12 01:56:22;;;;;;;3.37;0.90;;;23.00;99.90;;;;;;5010023;28;20249;-74
2023/07/12 01:58:50;;;;;;;2.90;0.67;;;23.00;99.90;;;;;;5009559;28;20182;-75
2023/07/12 02:01:16;;;;;;;3.23;0.80;;;23.00;99.90;;;;;;5011267;28;20600;-74
2023/07/12 02:03:42;;;;;;;2.13;1.00;;;22.90;99.90;;;;;;5009812;28;20206;-74
2023/07/12 02:06:08;;;;;;;1.83;0.80;;;22.90;99.90;;;;;;4993650;28;20186;-74
2023/07/12 02:08:33;;;;;;;1.87;0.90;;;22.90;99.90;;;;;;4993323;28;20162;-75
2023/07/12 02:10:59;;;;;;;2.80;1.10;;;22.90;99.90;;;;;;5010965;28;20569;-74
2023/07/12 02:13:25;;;;;;;2.30;0.90;;;22.90;99.90;;;;;;5009091;28;20253;-74
2023/07/12 02:15:51;;;;;;;2.80;1.00;;;22.90;99.90;;;;;;5009704;28;20686;-74
2023/07/12 02:18:17;;;;;;;2.17;0.73;;;22.90;99.90;;;;;;4993073;28;20174;-74
2023/07/12 02:20:43;;;;;;;2.20;1.00;;;22.90;99.90;;;;;;5009696;28;21231;-74
2023/07/12 02:23:09;;;;;;;2.20;1.30;;;23.00;99.90;;;;;;5009668;28;20585;-74
2023/07/12 02:25:35;;;;;;;3.20;0.80;;;23.00;99.90;;;;;;5009780;28;21184;-74
2023/07/12 02:28:04;;;;;;;1.80;0.80;;;23.00;99.90;;;;;;5010756;28;20185;-74
2023/07/12 02:30:31;;;;;;;1.90;0.93;;;23.00;99.90;;;;;;5009542;28;20577;-74
2023/07/12 02:32:57;;;;;;;3.43;0.80;;;23.00;99.90;;;;;;4992873;28;20573;-75
2023/07/12 02:35:27;;;;;;;2.13;0.80;;;23.00;99.90;;;;;;5009154;28;20577;-74
2023/07/12 02:37:57;;;;;;;2.40;1.00;;;23.00;99.90;;;;;;5010430;28;20600;-74
2023/07/12 02:40:24;;;;;;;2.53;1.10;;;23.00;99.90;;;;;;5011032;28;20953;-75
2023/07/12 02:42:50;;;;;;;2.47;1.00;;;23.00;99.90;;;;;;4992756;28;20589;-73
2023/07/12 02:45:16;;;;;;;1.73;0.93;;;23.00;99.90;;;;;;5009322;28;20624;-73
2023/07/12 02:47:41;;;;;;;2.33;0.70;;;22.90;99.90;;;;;;5008769;28;20616;-73
2023/07/12 02:50:07;;;;;;;3.10;1.10;;;22.90;99.90;;;;;;5011009;28;20167;-74
2023/07/12 02:52:34;;;;;;;2.03;0.90;;;22.90;99.90;;;;;;5010420;28;20622;-74
2023/07/12 02:54:59;;;;;;;4.53;0.97;;;22.90;99.90;;;;;;5010625;28;20601;-74
2023/07/12 02:57:25;;;;;;;4.13;1.27;;;22.90;99.90;;;;;;4992308;28;20683;-75
2023/07/12 02:59:51;;;;;;;1.83;0.93;;;22.90;99.90;;;;;;5010692;28;20736;-74
2023/07/12 03:02:18;;;;;;;3.87;0.80;;;22.90;99.90;;;;;;5009215;28;20570;-74
2023/07/12 03:04:44;;;;;;;2.47;0.90;;;22.90;99.90;;;;;;5009057;28;20328;-74
2023/07/12 03:07:10;;;;;;;4.50;0.93;;;22.90;99.90;;;;;;5010388;28;20845;-74
2023/07/12 03:09:36;;;;;;;2.10;0.93;;;22.90;99.90;;;;;;5010382;28;20685;-74
2023/07/12 03:12:02;;;;;;;3.73;1.30;;;22.90;99.90;;;;;;5010489;28;20211;-74
2023/07/12 03:14:28;;;;;;;3.80;0.93;;;22.90;99.90;;;;;;5010064;28;20604;-74
2023/07/12 03:16:54;;;;;;;3.87;1.00;;;22.80;99.90;;;;;;4992860;28;20617;-75
2023/07/12 03:19:21;;;;;;;2.33;0.90;;;22.80;99.90;;;;;;5009006;28;20589;-74
2023/07/12 03:21:48;;;;;;;4.93;1.00;;;22.70;99.90;;;;;;4992282;28;20578;-74
2023/07/12 03:24:14;;;;;;;2.50;0.90;;;22.70;99.90;;;;;;5009913;28;20628;-73
2023/07/12 03:26:40;;;;;;;3.60;1.20;;;22.70;99.90;;;;;;5008527;28;20622;-74
2023/07/12 03:29:06;;;;;;;3.30;0.90;;;22.60;99.90;;;;;;5010270;28;20569;-74
2023/07/12 03:31:31;;;;;;;2.57;0.70;;;22.60;99.90;;;;;;5008463;28;20692;-74
2023/07/12 03:33:58;;;;;;;2.20;0.90;;;22.50;99.90;;;;;;5010339;28;20233;-74
2023/07/12 03:36:28;;;;;;;2.07;0.90;;;22.50;99.90;;;;;;5009793;28;20634;-74
2023/07/12 03:38:54;;;;;;;2.30;0.80;;;22.50;99.90;;;;;;5008614;28;20584;-73
2023/07/12 03:41:21;;;;;;;2.40;0.90;;;22.40;99.90;;;;;;4991987;28;20636;-74
2023/07/12 03:43:47;;;;;;;6.93;0.90;;;22.40;99.90;;;;;;5010008;28;20620;-74
2023/07/12 03:46:14;;;;;;;8.30;0.87;;;22.30;99.90;;;;;;4992389;28;20720;-74
2023/07/12 03:48:39;;;;;;;3.23;0.70;;;22.30;99.90;;;;;;5008693;28;20999;-74
2023/07/12 03:51:06;;;;;;;2.90;0.90;;;22.30;99.90;;;;;;5008637;28;20668;-74
2023/07/12 03:53:32;;;;;;;4.20;0.80;;;22.30;99.90;;;;;;5010300;28;20165;-74
2023/07/12 03:56:00;;;;;;;1.90;0.70;;;22.20;99.90;;;;;;5008760;28;20656;-74
2023/07/12 03:58:36;;;;;;;3.97;0.70;;;22.20;99.90;;;;;;4991748;28;20585;-74
2023/07/12 04:01:04;;;;;;;2.10;0.70;;;22.20;99.90;;;;;;4992732;28;20589;-74
2023/07/12 04:03:30;;;;;;;3.87;0.80;;;22.20;99.90;;;;;;4991976;28;20577;-74
2023/07/12 04:05:56;;;;;;;2.80;0.93;;;22.20;99.90;;;;;;5010294;28;20617;-74
2023/07/12 04:08:21;;;;;;;1.90;0.70;;;22.20;99.90;;;;;;4975580;28;20265;-74
2023/07/12 04:10:55;;;;;;;3.77;0.70;;;22.20;99.90;;;;;;5009397;28;20676;-74
2023/07/12 04:13:22;;;;;;;2.03;0.70;;;22.20;99.90;;;;;;4995581;28;20174;-75
2023/07/12 04:15:50;;;;;;;4.93;0.77;;;22.20;99.90;;;;;;5012456;28;20624;-74
2023/07/12 04:18:16;;;;;;;2.53;0.70;;;22.20;99.90;;;;;;4995473;28;20716;-73
2023/07/12 04:20:41;;;;;;;3.40;0.70;;;22.20;99.90;;;;;;5012231;28;20589;-73
2023/07/12 04:23:07;;;;;;;2.73;1.00;;;22.20;99.90;;;;;;4995539;28;20174;-74
2023/07/12 04:25:33;;;;;;;1.57;0.60;;;22.20;99.90;;;;;;5013682;28;20260;-73
2023/07/12 04:27:59;;;;;;;1.80;0.63;;;22.10;99.90;;;;;;5010720;28;20170;-74
2023/07/12 04:30:25;;;;;;;1.93;0.70;;;22.10;99.90;;;;;;4997391;28;20626;-74
2023/07/12 04:32:52;;;;;;;1.60;0.60;;;22.00;99.90;;;;;;5008793;28;20615;-74
2023/07/12 04:35:18;;;;;;;1.87;0.63;;;22.00;99.90;;;;;;5013190;28;20167;-74
2023/07/12 04:37:49;;;;;;;1.60;0.63;;;21.90;99.90;;;;;;5006914;28;20590;-74
2023/07/12 04:40:17;;;;;;;2.23;0.67;;;21.90;99.90;;;;;;4992415;28;20601;-74
2023/07/12 04:42:43;;;;;;;2.17;0.80;;;21.90;99.90;;;;;;4987210;28;20596;-74
2023/07/12 04:45:10;;;;;;;1.73;0.70;;;21.90;99.90;;;;;;5000472;28;20637;-74
2023/07/12 04:47:36;;;;;;;1.87;0.60;;;21.90;99.90;;;;;;5007688;28;20593;-74
2023/07/12 04:50:07;;;;;;;1.73;0.87;;;21.90;99.90;;;;;;5011953;28;20631;-74
2023/07/12 04:52:33;;;;;;;2.00;0.70;;;21.90;99.90;;;;;;5006705;28;20577;-74
2023/07/12 04:55:03;;;;;;;3.17;1.23;;;21.90;99.90;;;;;;5004807;28;20959;-74
2023/07/12 04:57:30;;;;;;;1.50;0.67;;;21.90;99.90;;;;;;5005457;28;20720;-74
2023/07/12 04:59:55;;;;;;;1.33;0.53;;;22.00;99.90;;;;;;5002358;28;21137;-74
2023/07/12 05:02:21;;;;;;;1.40;0.60;;;22.00;99.90;;;;;;5003843;28;20814;-74
2023/07/12 05:04:47;;;;;;;1.67;0.63;;;22.10;99.90;;;;;;5000019;28;20985;-74
2023/07/12 05:07:12;;;;;;;1.50;0.60;;;22.10;99.90;;;;;;4986961;28;20230;-74
2023/07/12 05:09:38;;;;;;;5.67;0.83;;;22.10;99.90;;;;;;5000522;28;20174;-74
2023/07/12 05:12:04;;;;;;;2.37;0.73;;;22.10;99.90;;;;;;4992825;28;20186;-75
2023/07/12 05:14:30;;;;;;;1.80;0.70;;;22.10;99.90;;;;;;5003427;28;20527;-74
2023/07/12 05:16:56;;;;;;;2.40;0.80;;;22.10;99.90;;;;;;5006168;28;20625;-74
2023/07/12 05:19:22;;;;;;;1.80;0.73;;;22.20;99.90;;;;;;5005927;28;20180;-74
2023/07/12 05:21:48;;;;;;;1.93;0.67;;;22.20;99.90;;;;;;5011772;28;21418;-74
2023/07/12 05:24:13;;;;;;;1.37;0.50;;;22.20;99.90;;;;;;5010426;28;21192;-74
2023/07/12 05:26:39;;;;;;;1.77;0.70;;;22.30;99.90;;;;;;4999124;28;20203;-77
2023/07/12 05:29:06;;;;;;;2.70;0.80;;;22.30;99.90;;;;;;4974977;28;20175;-75
2023/07/12 05:31:32;;;;;;;1.70;0.70;;;22.30;99.90;;;;;;4996932;28;20701;-75
2023/07/12 05:33:57;;;;;;;2.50;0.70;;;22.30;99.90;;;;;;5003863;28;20317;-74
2023/07/12 05:36:23;;;;;;;1.50;0.73;;;22.30;99.90;;;;;;5010794;28;20605;-75
2023/07/12 05:38:49;;;;;;;2.20;0.80;;;22.40;99.90;;;;;;5011566;28;20611;-75
2023/07/12 05:41:14;;;;;;;1.60;0.80;;;22.40;99.90;;;;;;5010517;28;20158;-75
2023/07/12 05:43:41;;;;;;;1.73;0.57;;;22.40;99.90;;;;;;5012332;28;20277;-75
2023/07/12 05:46:07;;;;;;;1.63;0.70;;;22.50;99.90;;;;;;4994439;28;20205;-74
2023/07/12 05:48:32;;;;;;;4.03;0.90;;;22.50;99.90;;;;;;5009956;28;20574;-75
2023/07/12 05:51:04;;;;;;;1.80;0.70;;;22.60;99.90;;;;;;4978347;28;20200;-74
2023/07/12 05:53:30;;;;;;;2.17;0.70;;;22.70;99.90;;;;;;5002312;28;20210;-74
2023/07/12 05:56:00;;;;;;;1.40;0.50;;;22.70;99.90;;;;;;5008138;28;20632;-74
2023/07/12 05:58:27;;;;;;;3.83;0.70;;;22.80;99.90;;;;;;5009834;28;20581;-74
2023/07/12 06:00:58;;;;;;;1.50;0.70;;;22.80;99.90;;;;;;5010641;28;20907;-74
2023/07/12 06:03:25;;;;;;;1.70;0.60;;;22.80;99.90;;;;;;5011645;28;20612;-74
2023/07/12 06:05:52;;;;;;;2.63;0.70;;;22.80;99.90;;;;;;5010267;28;20628;-74
2023/07/12 06:08:18;;;;;;;1.60;0.80;;;22.90;99.90;;;;;;4999882;28;21367;-74
2023/07/12 06:10:44;;;;;;;1.80;0.80;;;22.90;99.90;;;;;;5003055;28;20986;-74
2023/07/12 06:13:11;;;;;;;4.17;0.70;;;22.90;99.90;;;;;;5009696;28;20569;-73
2023/07/12 06:15:37;;;;;;;1.50;0.60;;;23.00;99.90;;;;;;5008055;28;20649;-73
2023/07/12 06:18:03;;;;;;;3.13;0.80;;;23.10;99.90;;;;;;5001329;28;21275;-73
2023/07/12 06:20:29;;;;;;;1.97;0.77;;;23.40;99.90;;;;;;5009972;28;20692;-73
2023/07/12 06:22:54;;;;;;;2.07;0.80;;;24.10;99.90;;;;;;5011096;28;20527;-74
2023/07/12 06:25:20;;;;;;;1.70;0.70;;;24.90;99.90;;;;;;5011025;28;21093;-74
2023/07/12 06:27:46;;;;;;;3.30;0.77;;;25.60;99.90;;;;;;5009002;28;20178;-73
2023/07/12 06:30:12;;;;;;;2.30;0.60;;;26.00;99.90;;;;;;5002735;28;20186;-74
2023/07/12 06:32:38;;;;;;;2.93;1.17;;;26.60;99.90;;;;;;4997481;28;20326;-73
2023/07/12 06:35:04;;;;;;;2.40;0.80;;;27.30;99.90;;;;;;5009023;28;20197;-74
2023/07/12 06:37:30;;;;;;;2.53;1.00;;;28.10;99.90;;;;;;5009955;28;20205;-74
2023/07/12 06:39:55;;;;;;;2.10;0.73;;;28.70;99.90;;;;;;4994437;28;20583;-75
2023/07/12 06:42:21;;;;;;;2.00;0.60;;;29.10;99.90;;;;;;4990784;28;20176;-75
2023/07/12 06:44:46;;;;;;;2.03;0.63;;;29.70;99.90;;;;;;4990473;28;20576;-75
2023/07/12 06:47:12;;;;;;;1.80;0.70;;;30.20;99.90;;;;;;4990367;28;20187;-76
2023/07/12 06:49:38;;;;;;;1.90;0.60;;;30.70;99.90;;;;;;4990361;28;20250;-75
2023/07/12 06:52:04;;;;;;;3.50;1.00;;;30.80;99.90;;;;;;4990030;28;20529;-76
2023/07/12 06:54:30;;;;;;;2.90;0.70;;;30.80;99.90;;;;;;4989665;28;20207;-75
2023/07/12 06:56:56;;;;;;;1.50;0.70;;;30.70;98.80;;;;;;4990244;28;20668;-75
2023/07/12 06:59:23;;;;;;;1.87;0.60;;;30.40;97.40;;;;;;4994925;28;20609;-76
2023/07/12 07:01:49;;;;;;;1.47;0.73;;;30.10;96.90;;;;;;4992982;28;20175;-75
2023/07/12 07:04:15;;;;;;;1.47;0.60;;;29.80;96.80;;;;;;4973184;28;20650;-75
2023/07/12 07:06:42;;;;;;;1.93;0.60;;;29.70;96.10;;;;;;4988708;28;20727;-75
2023/07/12 07:09:08;;;;;;;1.67;0.70;;;29.30;95.60;;;;;;4988990;28;20265;-75
2023/07/12 07:11:34;;;;;;;2.43;0.60;;;29.00;95.20;;;;;;4990765;28;20566;-75
2023/07/12 07:14:00;;;;;;;1.70;0.60;;;28.70;95.70;;;;;;4990605;28;20745;-74
2023/07/12 07:16:27;;;;;;;1.63;0.70;;;28.60;95.90;;;;;;4991502;28;20190;-75
2023/07/12 07:18:53;;;;;;;1.70;0.50;;;28.30;95.50;;;;;;4989462;28;20570;-74
2023/07/12 07:21:19;;;;;;;1.60;0.57;;;28.10;95.20;;;;;;4988074;28;20594;-75
2023/07/12 07:23:44;;;;;;;1.50;0.60;;;27.90;95.40;;;;;;4990580;28;20620;-75
2023/07/12 07:26:11;;;;;;;2.57;0.60;;;27.70;95.20;;;;;;4990610;28;20202;-76
2023/07/12 07:28:40;;;;;;;1.40;0.60;;;27.50;95.20;;;;;;4973028;28;20179;-76
2023/07/12 07:31:07;;;;;;;2.10;0.53;;;27.30;95.20;;;;;;4990022;28;20653;-77
2023/07/12 07:33:33;;;;;;;1.50;0.60;;;27.10;95.00;;;;;;4992698;28;20598;-76
2023/07/12 07:35:59;;;;;;;3.73;0.60;;;26.90;94.90;;;;;;4989067;28;21024;-77
2023/07/12 07:38:27;;;;;;;2.07;0.70;;;26.60;95.20;;;;;;4989312;28;20574;-77
2023/07/12 07:40:55;;;;;;;2.17;0.70;;;26.40;95.30;;;;;;4990885;28;20685;-77
2023/07/12 07:43:21;;;;;;;3.13;0.70;;;26.20;95.50;;;;;;4990593;28;20582;-77
2023/07/12 07:45:48;;;;;;;1.77;0.60;;;25.90;95.70;;;;;;4991508;28;20668;-80
2023/07/12 07:48:15;;;;;;;1.60;0.60;;;25.70;96.00;;;;;;4993514;28;20575;-77
2023/07/12 07:50:42;;;;;;;1.97;0.70;;;25.70;96.90;;;;;;4976983;28;20692;-78
2023/07/12 07:53:11;;;;;;;2.23;0.70;;;26.00;97.80;;;;;;4992781;28;20590;-77
2023/07/12 07:55:44;;;;;;;3.10;0.70;;;26.60;99.00;;;;;;4993161;28;21001;-76
2023/07/12 07:58:14;;;;;;;2.70;0.60;;;27.10;98.60;;;;;;4994047;28;20924;-79
2023/07/12 08:00:39;;;;;;;2.17;0.60;;;27.90;99.20;;;;;;4994722;28;20578;-79
2023/07/12 08:03:06;;;;;;;2.17;0.80;;;28.70;98.80;;;;;;4994480;28;20624;-75
2023/07/12 08:05:32;;;;;;;1.53;0.50;;;29.20;97.60;;;;;;4997439;28;20199;-78
2023/07/12 08:07:58;;;;;;;1.90;0.60;;;29.40;95.90;;;;;;4993521;28;20645;-77
2023/07/12 08:10:24;;;;;;;1.50;0.70;;;29.30;94.00;;;;;;4980769;28;21132;-76
2023/07/12 08:12:50;;;;;;;1.87;0.90;;;29.30;93.70;;;;;;4992803;28;20595;-76
2023/07/12 08:15:18;;;;;;;4.17;0.83;;;29.30;93.50;;;;;;4993752;28;20199;-76
2023/07/12 08:17:43;;;;;;;1.70;0.63;;;29.30;93.50;;;;;;4976476;28;20988;-76
2023/07/12 08:20:10;;;;;;;5.90;0.80;;;29.20;92.50;;;;;;4992709;28;20696;-76
2023/07/12 08:22:36;;;;;;;2.80;0.60;;;29.20;92.10;;;;;;4993130;28;20589;-76
2023/07/12 08:25:03;;;;;;;2.87;0.60;;;29.20;91.90;;;;;;4993010;28;20581;-76
2023/07/12 08:27:30;;;;;;;1.80;0.60;;;29.40;92.10;;;;;;4975757;28;20649;-76
2023/07/12 08:29:58;;;;;;;1.60;0.67;;;29.70;92.50;;;;;;4976581;28;20590;-76
2023/07/12 08:32:28;;;;;;;3.17;0.70;;;30.00;92.00;;;;;;4992255;28;20589;-75
2023/07/12 08:34:54;;;;;;;2.20;0.97;;;30.20;90.00;;;;;;4992588;28;20633;-75
2023/07/12 08:37:20;;;;;;;2.57;0.70;;;30.30;90.40;;;;;;4992274;28;21182;-75
2023/07/12 08:39:46;;;;;;;3.73;1.10;;;30.30;90.10;;;;;;4992733;28;20591;-75
2023/07/12 08:42:17;;;;;;;1.60;0.50;;;30.40;89.10;;;;;;4975855;28;20175;-76
2023/07/12 08:44:43;;;;;;;1.50;0.60;;;30.40;87.60;;;;;;4992885;28;20266;-75
2023/07/12 08:47:17;;;;;;;2.07;0.70;;;30.40;87.10;;;;;;4996689;28;21022;-76
2023/07/12 08:49:43;;;;;;;1.43;0.67;;;30.40;84.60;;;;;;4975944;28;20272;-76
2023/07/12 08:52:18;;;;;;;2.70;0.70;;;30.60;85.20;;;;;;4993094;28;20689;-76
2023/07/12 08:54:45;;;;;;;3.40;0.60;;;30.90;84.90;;;;;;4975573;28;20206;-76
2023/07/12 08:57:20;;;;;;;4.37;0.70;;;31.50;85.40;;;;;;4992682;28;20610;-76
2023/07/12 09:00:07;;;;;;;2.30;0.63;;;32.10;83.00;;;;;;4991549;28;20687;-76
2023/07/12 09:02:34;;;;;;;2.77;0.97;;;32.90;82.60;;;;;;4991358;28;20912;-75
2023/07/12 09:05:16;;;;;;;3.37;1.00;;;33.30;79.20;;;;;;4993354;28;20938;-77
2023/07/12 09:07:55;;;;;;;2.20;0.80;;;33.50;73.50;;;;;;4975309;28;20691;-77
2023/07/12 09:10:41;;;;;;;3.30;0.70;;;33.60;69.70;;;;;;4992513;28;21212;-76
2023/07/12 09:13:11;;;;;;;1.93;0.60;;;33.80;68.40;;;;;;4975283;28;20627;-76
2023/07/12 09:15:48;;;;;;;2.00;0.63;;;34.20;68.00;;;;;;4991122;28;20763;-76
2023/07/12 09:18:27;;;;;;;1.60;0.50;;;34.60;67.60;;;;;;4991362;28;20614;-75
2023/07/12 09:20:53;;;;;;;1.90;0.60;;;34.50;62.90;;;;;;4973344;28;20613;-74
2023/07/12 09:23:19;;;;;;;1.70;0.50;;;34.20;61.80;;;;;;4974864;28;21135;-73
2023/07/12 09:25:47;;;;;;;2.80;0.80;;;34.00;61.80;;;;;;4971876;28;20295;-75
2023/07/12 09:28:15;;;;;;;2.70;1.27;;;33.70;59.20;;;;;;4972469;28;20184;-76
2023/07/12 09:30:41;;;;;;;2.50;0.60;;;33.30;58.20;;;;;;4956109;28;20579;-77
2023/07/12 09:33:23;;;;;;;2.80;0.60;;;32.90;57.70;;;;;;4983504;28;20935;-77
2023/07/12 09:35:49;;;;;;;2.63;0.70;;;32.70;57.60;;;;;;4992648;28;20690;-76
2023/07/12 09:38:22;;;;;;;4.77;0.80;;;32.80;59.30;;;;;;4974412;28;20571;-76
2023/07/12 09:40:51;;;;;;;3.87;0.70;;;32.80;59.20;;;;;;4992167;28;20623;-76
2023/07/12 09:43:18;;;;;;;2.30;0.70;;;33.00;59.00;;;;;;4992251;28;20928;-76
2023/07/12 09:46:11;;;;;;;2.10;0.70;;;33.30;59.80;;;;;;4991236;28;20955;-76
2023/07/12 09:48:52;;;;;;;4.10;0.90;;;33.70;58.00;;;;;;4992462;28;20584;-75
2023/07/12 09:51:44;;;;;;;2.90;0.80;;;34.10;59.20;;;;;;5007481;28;20690;-75
2023/07/12 09:54:34;;;;;;;2.10;0.80;;;34.70;58.10;;;;;;5007878;28;20622;-75
2023/07/12 09:57:12;;;;;;;2.13;0.70;;;35.30;57.40;;;;;;5006392;28;20638;-75
2023/07/12 09:59:50;;;;;;;2.33;0.70;;;35.80;56.10;;;;;;4991860;28;20680;-77
2023/07/12 10:02:22;;;;;;;1.90;0.60;;;36.40;55.80;;;;;;4991174;28;20628;-75
2023/07/12 10:04:54;;;;;;;4.13;0.60;;;37.10;55.40;;;;;;4993966;28;20647;-75
2023/07/12 10:07:22;;;;;;;2.30;0.80;;;37.70;55.30;;;;;;4992734;28;21146;-75
2023/07/12 10:09:51;;;;;;;2.57;0.60;;;38.30;53.00;;;;;;4994346;28;20578;-75
2023/07/12 10:12:24;;;;;;;3.23;0.70;;;38.30;51.50;;;;;;5006550;28;20554;-76
2023/07/12 10:14:53;;;;;;;3.20;0.60;;;38.20;49.40;;;;;;4997547;28;20624;-77
2023/07/12 10:17:37;;;;;;;2.40;0.70;;;37.90;48.00;;;;;;4990007;28;20964;-75
2023/07/12 10:20:05;;;;;;;1.90;0.70;;;37.30;46.50;;;;;;4990569;28;20578;-76
2023/07/12 10:22:38;;;;;;;3.67;0.70;;;37.00;46.90;;;;;;4990034;28;20597;-75
2023/07/12 10:25:20;;;;;;;2.63;0.80;;;36.60;45.70;;;;;;4990442;28;20646;-76
2023/07/12 10:27:57;;;;;;;1.90;0.70;;;36.40;45.70;;;;;;5006249;28;20597;-76
2023/07/12 10:30:26;;;;;;;2.53;0.60;;;36.40;47.00;;;;;;4991331;28;20697;-77
2023/07/12 10:33:02;;;;;;;2.07;0.70;;;36.60;47.30;;;;;;4989951;28;21008;-78
2023/07/12 10:35:42;;;;;;;2.43;0.70;;;36.70;46.70;;;;;;4992415;28;20577;-77
2023/07/12 10:38:17;;;;;;;2.30;0.60;;;36.70;45.70;;;;;;4990259;28;20612;-76
2023/07/12 10:41:01;;;;;;;2.07;0.63;;;36.80;45.40;;;;;;4989985;28;20574;-76
2023/07/12 10:43:36;;;;;;;3.40;0.80;;;36.70;44.80;;;;;;4973411;28;20677;-77
2023/07/12 10:46:09;;;;;;;1.87;0.80;;;36.30;44.30;;;;;;4974082;28;20626;-76
2023/07/12 10:48:38;;;;;;;5.20;0.60;;;36.10;44.80;;;;;;4989384;28;20644;-76
2023/07/12 10:51:35;;;;;;;4.17;0.70;;;36.20;44.60;;;;;;4989125;28;20586;-76
2023/07/12 10:54:02;;;;;;;1.70;0.70;;;36.30;43.20;;;;;;4989035;28;20570;-76
2023/07/12 10:56:35;;;;;;;3.67;0.70;;;36.50;45.60;;;;;;4989365;28;20703;-76
2023/07/12 10:59:21;;;;;;;2.00;0.63;;;36.70;45.30;;;;;;4989245;28;20590;-76
2023/07/12 11:01:53;;;;;;;1.90;0.60;;;36.80;45.00;;;;;;4988969;28;20588;-76
2023/07/12 11:04:19;;;;;;;2.43;0.67;;;36.70;44.00;;;;;;4990709;28;20630;-76
2023/07/12 11:06:58;;;;;;;2.60;0.73;;;36.60;44.50;;;;;;4988927;28;20639;-76
2023/07/12 11:09:47;;;;;;;4.50;2.10;;;36.40;43.50;;;;;;4973462;28;20277;-76
2023/07/12 11:12:14;;;;;;;1.80;0.60;;;35.90;43.00;;;;;;4990965;28;20629;-77
2023/07/12 11:14:41;;;;;;;4.90;0.70;;;35.50;42.80;;;;;;4991439;28;21301;-76
2023/07/12 11:17:06;;;;;;;3.13;1.00;;;35.30;43.40;;;;;;4972774;28;20648;-76
2023/07/12 11:19:46;;;;;;;2.93;0.80;;;35.20;44.20;;;;;;4989419;28;20629;-76
2023/07/12 11:22:19;;;;;;;2.80;0.90;;;35.10;44.50;;;;;;4989099;28;20186;-76
2023/07/12 11:24:45;;;;;;;4.33;1.10;;;35.20;44.90;;;;;;4957230;28;20638;-76
2023/07/12 11:27:42;;;;;;;1.70;0.90;;;35.30;44.40;;;;;;4988577;28;20621;-76
2023/07/12 11:30:27;;;;;;;2.00;0.73;;;35.20;43.30;;;;;;4984467;28;20241;-78
2023/07/12 11:33:06;;;;;;;5.37;0.80;;;35.10;42.90;;;;;;4972654;28;20630;-76
2023/07/12 11:35:44;;;;;;;2.57;0.70;;;35.00;43.20;;;;;;4989381;28;20984;-76
2023/07/12 11:38:18;;;;;;;3.50;0.80;;;34.90;43.20;;;;;;4988836;28;20580;-76
2023/07/12 11:40:46;;;;;;;3.30;1.30;;;34.70;43.40;;;;;;4990691;28;20749;-76
2023/07/12 11:43:24;;;;;;;2.30;0.90;;;34.60;43.70;;;;;;4980994;28;21035;-76
2023/07/12 11:45:56;;;;;;;4.50;0.90;;;34.60;43.50;;;;;;5002856;28;20663;-76
2023/07/12 11:48:23;;;;;;;2.27;1.00;;;34.70;43.40;;;;;;4989840;28;20814;-76
2023/07/12 11:50:52;;;;;;;2.77;0.73;;;34.70;43.50;;;;;;4989666;28;20686;-75
2023/07/12 11:53:20;;;;;;;2.87;1.17;;;34.50;42.60;;;;;;4992318;28;20648;-77
2023/07/12 11:55:49;;;;;;;2.77;1.10;;;34.10;42.20;;;;;;4996844;28;20756;-76
2023/07/12 11:58:19;;;;;;;4.90;2.03;;;33.80;41.90;;;;;;4983253;28;21119;-75
2023/07/12 12:00:46;;;;;;;4.23;0.97;;;33.40;42.40;;;;;;5002878;28;20585;-76
2023/07/12 12:03:14;;;;;;;4.00;2.30;;;33.10;42.50;;;;;;5008349;28;20595;-76
2023/07/12 12:05:40;;;;;;;2.93;0.90;;;32.80;42.50;;;;;;5002223;28;20645;-76
2023/07/12 12:08:17;;;;;;;2.70;0.77;;;32.40;42.60;;;;;;5007300;28;20589;-76
2023/07/12 12:10:46;;;;;;;3.23;0.90;;;32.20;44.20;;;;;;4988837;28;20590;-75
2023/07/12 12:13:18;;;;;;;2.97;1.10;;;32.10;44.30;;;;;;4989818;28;20590;-76
2023/07/12 12:15:48;;;;;;;2.70;0.80;;;32.10;44.60;;;;;;4990417;28;20705;-76
2023/07/12 12:18:18;;;;;;;3.30;0.90;;;32.20;45.10;;;;;;5000863;28;20583;-76
2023/07/12 12:21:01;;;;;;;3.10;0.60;;;32.30;45.60;;;;;;5008577;28;20597;-77
2023/07/12 12:23:39;;;;;;;2.53;0.90;;;32.40;45.80;;;;;;5009784;28;20594;-77
2023/07/12 12:26:19;;;;;;;2.50;0.80;;;32.80;45.40;;;;;;4993467;28;20634;-76
2023/07/12 12:28:59;;;;;;;3.10;0.80;;;32.90;45.30;;;;;;4989002;28;21244;-75
2023/07/12 12:31:27;;;;;;;1.90;0.60;;;33.10;44.40;;;;;;4983437;28;20630;-76
2023/07/12 12:34:14;;;;;;;2.87;0.97;;;33.20;44.80;;;;;;4972930;28;20657;-77
2023/07/12 12:37:15;;;;;;;2.63;0.77;;;33.20;44.20;;;;;;4989245;28;20686;-76
2023/07/12 12:39:54;;;;;;;3.63;0.77;;;33.10;42.90;;;;;;4992144;28;20659;-77
2023/07/12 12:42:22;;;;;;;3.57;1.90;;;33.00;43.20;;;;;;4970157;28;20627;-76
2023/07/12 12:44:48;;;;;;;5.60;0.97;;;32.60;42.50;;;;;;4996790;28;20673;-76
2023/07/12 12:47:19;;;;;;;2.07;0.70;;;32.40;43.00;;;;;;4991188;28;21308;-75
2023/07/12 12:49:46;;;;;;;2.47;0.60;;;32.30;43.50;;;;;;4959408;28;20187;-76
2023/07/12 12:52:41;;;;;;;1.67;0.60;;;32.20;43.70;;;;;;4991944;28;20597;-76
2023/07/12 12:55:09;;;;;;;2.10;0.57;;;32.00;43.50;;;;;;4978577;28;20605;-77
2023/07/12 12:57:36;;;;;;;1.60;0.60;;;31.80;43.10;;;;;;4991093;28;20708;-78